Terminal Aerodrome Forecast
Issued by NWS

Home | Current Version | Previous Version | Text Only | Print | Product List | Glossary On
Versions: 1 2 3 4 5 6 7 8 9 10 11 12 13 14 15 16 17 18
443
FTUS41 KAKQ 111120
TAFPHF
TAF
KPHF 111120Z 1112/1212 VRB04KT P6SM BKN250
     FM111600 15008KT P6SM BKN250
     FM120000 17006KT P6SM BKN090
     FM120700 18010G18KT 5SM -RA BR OVC030 WS020/19040KT=

USA.gov is the U.S. government's official web portal to all federal, state and local government web resources and services.